Time;durP1;ratioP1;P1;durP2;ratioP2;P2;SDS_P1;SDS_P2;PMS_P1;PMS_P2;Temp;Humidity;BMP_temperature;BMP_pressure;BME280_temperature;BME280_humidity;BME280_pressure;Samples;Min_cycle;Max_cycle;Signal;HPM_P1;HPM_P2
2021/03/25 00:01:26;;;;;;;46.93;27.93;;;;;;;6.79;62.62;100725.85;147501;1148;104586;-76
2021/03/25 00:04:29;;;;;;;39.40;23.75;;;;;;;6.77;62.43;100722.47;147618;1148;104646;-75
2021/03/25 00:07:32;;;;;;;64.47;34.37;;;;;;;6.55;62.69;100718.80;147762;1147;104524;-75
2021/03/25 00:10:37;;;;;;;70.72;33.75;;;;;;;6.44;62.77;100721.41;147769;1147;104495;-76
2021/03/25 00:13:41;;;;;;;67.82;33.55;;;;;;;6.48;62.26;100725.52;147983;1147;104573;-74
2021/03/25 00:16:44;;;;;;;62.80;32.77;;;;;;;6.52;63.09;100719.02;147778;1148;104581;-74
2021/03/25 00:19:47;;;;;;;55.05;30.02;;;;;;;6.53;62.34;100710.12;147771;1147;104529;-74
2021/03/25 00:22:51;;;;;;;69.50;34.73;;;;;;;6.56;62.90;100703.73;147801;1146;104661;-74
2021/03/25 00:25:55;;;;;;;63.00;32.35;;;;;;;6.62;62.71;100701.48;147764;1147;104915;-73
2021/03/25 00:28:58;;;;;;;55.95;29.27;;;;;;;6.70;63.11;100700.89;147729;1147;104535;-72
2021/03/25 00:32:02;;;;;;;53.60;29.90;;;;;;;6.75;62.24;100703.18;147772;1147;104547;-72
2021/03/25 00:35:09;;;;;;;52.45;28.57;;;;;;;6.79;62.60;100694.86;147665;1148;104620;-73
2021/03/25 00:38:13;;;;;;;46.40;25.82;;;;;;;6.82;62.77;100689.33;147847;1147;104567;-73
2021/03/25 00:41:16;;;;;;;45.53;25.60;;;;;;;6.83;62.77;100685.73;147432;1146;104526;-73
2021/03/25 00:44:19;;;;;;;42.53;23.95;;;;;;;6.85;62.81;100689.11;147722;1147;104601;-75
2021/03/25 00:47:23;;;;;;;37.33;22.02;;;;;;;6.84;62.52;100689.22;147380;1146;104608;-73
2021/03/25 00:50:30;;;;;;;40.83;23.90;;;;;;;6.81;62.16;100690.31;147731;1147;104537;-71
2021/03/25 00:53:36;;;;;;;41.83;22.87;;;;;;;6.79;61.96;100683.41;147449;1147;104547;-72
2021/03/25 00:56:39;;;;;;;38.08;22.17;;;;;;;6.77;62.63;100686.17;147733;1146;104492;-72
2021/03/25 00:59:42;;;;;;;38.60;21.60;;;;;;;6.74;61.99;100685.59;147735;1147;104512;-72
2021/03/25 01:02:45;;;;;;;35.28;20.55;;;;;;;6.68;62.70;100682.44;147379;1147;104567;-75
2021/03/25 01:05:49;;;;;;;40.38;22.95;;;;;;;6.65;62.60;100676.52;147753;1147;104655;-75
2021/03/25 01:08:52;;;;;;;36.65;22.20;;;;;;;6.63;62.48;100673.14;147315;1146;104595;-73
2021/03/25 01:11:57;;;;;;;38.60;22.35;;;;;;;6.59;62.65;100667.23;147244;1147;104510;-73
2021/03/25 01:15:01;;;;;;;35.97;21.23;;;;;;;6.56;62.61;100667.45;147207;1147;104557;-73
2021/03/25 01:18:07;;;;;;;39.10;22.48;;;;;;;6.54;63.18;100661.42;147310;1147;104550;-72
2021/03/25 01:21:10;;;;;;;37.40;22.22;;;;;;;6.47;62.25;100662.88;147262;1146;104643;-74
2021/03/25 01:24:14;;;;;;;46.02;25.57;;;;;;;6.42;62.27;100663.20;147142;1147;104601;-76
2021/03/25 01:27:18;;;;;;;45.95;24.43;;;;;;;6.43;62.78;100662.26;147748;1147;104444;-76
2021/03/25 01:30:24;;;;;;;48.13;26.42;;;;;;;6.43;62.50;100658.77;147350;1147;104596;-73
2021/03/25 01:33:27;;;;;;;52.67;28.67;;;;;;;6.39;62.74;100649.33;147801;1147;104455;-72
2021/03/25 01:36:31;;;;;;;60.78;31.30;;;;;;;6.34;62.17;100656.81;147730;1147;104662;-76
2021/03/25 01:39:35;;;;;;;59.13;30.75;;;;;;;6.26;62.56;100658.22;147735;1146;104432;-77
2021/03/25 01:42:39;;;;;;;66.28;33.67;;;;;;;6.23;62.29;100666.39;147777;1147;104476;-76
2021/03/25 01:45:57;;;;;;;58.63;31.13;;;;;;;6.26;62.17;100658.22;147561;1147;104551;-75
2021/03/25 01:49:04;;;;;;;62.65;32.60;;;;;;;6.26;62.84;100650.27;147437;1147;104524;-72
2021/03/25 01:52:40;;;;;;;69.35;35.60;;;;;;;6.26;62.37;100652.92;147398;1147;104548;-73
2021/03/25 01:55:55;;;;;;;50.20;27.62;;;;;;;6.25;63.21;100640.63;147547;1148;104476;-73
2021/03/25 01:59:37;;;;;;;44.13;24.27;;;;;;;6.26;63.31;100644.14;147643;1147;104581;-75
2021/03/25 02:02:49;;;;;;;43.33;22.13;;;;;;;6.26;62.99;100647.63;147353;1147;104515;-77
2021/03/25 02:06:07;;;;;;;40.00;20.92;;;;;;;6.32;62.59;100640.18;147842;1147;104471;-77
2021/03/25 02:09:18;;;;;;;39.30;22.17;;;;;;;6.37;62.68;100645.95;147758;1147;104591;-73
2021/03/25 02:12:37;;;;;;;41.00;22.35;;;;;;;6.43;62.15;100634.91;147760;1147;104531;-73
2021/03/25 02:15:48;;;;;;;56.48;25.65;;;;;;;6.49;63.19;100639.74;147747;1147;104553;-78
2021/03/25 02:19:00;;;;;;;47.55;24.70;;;;;;;6.54;62.97;100640.21;147479;1147;105078;-78
2021/03/25 02:22:26;;;;;;;44.50;22.63;;;;;;;6.57;61.99;100633.85;147787;1146;104472;-79
2021/03/25 02:25:38;;;;;;;45.20;24.20;;;;;;;6.57;63.01;100631.20;147798;1147;104626;-74
2021/03/25 02:29:13;;;;;;;46.58;24.70;;;;;;;6.55;62.09;100631.31;147720;1147;104537;-71
2021/03/25 02:32:25;;;;;;;41.45;23.67;;;;;;;6.49;62.45;100632.63;147681;1147;104454;-73
2021/03/25 02:35:32;;;;;;;38.15;21.07;;;;;;;6.46;62.35;100629.36;147395;1147;104483;-72
2021/03/25 02:38:42;;;;;;;39.55;22.25;;;;;;;6.44;63.38;100625.98;147886;1147;104508;-73
2021/03/25 02:41:54;;;;;;;35.40;20.80;;;;;;;6.40;62.61;100629.83;147384;1147;104620;-73
2021/03/25 02:45:02;;;;;;;44.88;25.27;;;;;;;6.26;62.10;100623.77;147408;1147;104472;-74
2021/03/25 02:48:12;;;;;;;49.38;27.30;;;;;;;6.14;62.99;100618.55;147769;1147;104473;-73
2021/03/25 02:51:21;;;;;;;45.05;25.25;;;;;;;6.16;62.90;100616.63;147752;1148;104519;-73
2021/03/25 02:54:26;;;;;;;49.27;27.55;;;;;;;6.17;62.71;100611.22;147798;1147;104447;-73
2021/03/25 02:57:34;;;;;;;46.68;26.35;;;;;;;6.15;62.84;100621.08;147321;1147;104602;-74
2021/03/25 03:00:44;;;;;;;43.87;24.60;;;;;;;6.13;62.70;100620.36;147103;1147;104584;-73
2021/03/25 03:03:52;;;;;;;41.83;23.45;;;;;;;6.15;62.92;100613.14;147316;1147;104592;-77
2021/03/25 03:07:26;;;;;;;36.85;22.07;;;;;;;6.11;63.44;100609.03;147772;1145;104556;-72
2021/03/25 03:10:53;;;;;;;38.58;21.77;;;;;;;6.12;63.49;100613.39;147731;1147;104473;-72
2021/03/25 03:14:04;;;;;;;37.67;21.68;;;;;;;6.12;63.01;100609.87;147816;1147;104624;-72
2021/03/25 03:17:13;;;;;;;38.78;22.25;;;;;;;6.10;63.31;100609.98;147677;1147;104582;-72
2021/03/25 03:20:24;;;;;;;36.28;21.20;;;;;;;6.05;63.46;100609.50;147077;1147;104559;-76
2021/03/25 03:23:45;;;;;;;37.25;20.77;;;;;;;6.03;62.72;100611.42;147330;1147;104944;-73
2021/03/25 03:26:54;;;;;;;40.20;22.82;;;;;;;6.05;62.67;100607.69;147411;1146;104485;-75
2021/03/25 03:30:02;;;;;;;45.60;22.53;;;;;;;6.07;63.27;100612.88;147761;1148;104604;-72
2021/03/25 03:33:13;;;;;;;42.43;22.42;;;;;;;6.12;62.94;100605.44;147661;1147;104508;-72
2021/03/25 03:36:20;;;;;;;36.90;21.10;;;;;;;6.18;63.03;100612.05;147825;1148;104495;-73
2021/03/25 03:39:27;;;;;;;38.42;22.17;;;;;;;6.25;62.64;100611.47;148294;1147;104502;-72
2021/03/25 03:42:32;;;;;;;40.70;23.02;;;;;;;6.29;62.99;100612.95;147785;1147;104556;-73
2021/03/25 03:45:39;;;;;;;42.17;23.45;;;;;;;6.31;62.93;100618.11;147730;1147;104639;-72
2021/03/25 03:49:12;;;;;;;40.73;23.12;;;;;;;6.32;63.36;100622.47;147771;1147;104501;-72
2021/03/25 03:52:22;;;;;;;40.15;23.15;;;;;;;6.33;62.51;100612.70;148472;1147;105164;-73
2021/03/25 03:55:26;;;;;;;67.60;33.20;;;;;;;6.26;62.73;100622.94;148037;1147;104599;-71
2021/03/25 03:58:39;;;;;;;49.15;26.73;;;;;;;6.12;63.67;100621.34;147760;1147;104552;-72
2021/03/25 04:01:48;;;;;;;46.25;26.12;;;;;;;6.13;63.51;100623.00;147748;1147;104549;-74
2021/03/25 04:05:03;;;;;;;43.87;25.43;;;;;;;6.15;63.79;100623.73;147790;1147;104906;-72
2021/03/25 04:08:37;;;;;;;48.33;26.05;;;;;;;6.06;62.64;100642.96;147488;1147;104659;-73
2021/03/25 04:11:51;;;;;;;54.90;30.30;;;;;;;5.73;62.91;100641.82;147429;1147;104519;-72
2021/03/25 04:15:12;;;;;;;54.58;30.92;;;;;;;5.65;63.49;100638.89;147471;1147;104488;-72
2021/03/25 04:18:29;;;;;;;65.67;34.15;;;;;;;5.57;63.31;100643.91;147771;1147;104594;-75
2021/03/25 04:22:04;;;;;;;59.55;31.55;;;;;;;5.55;63.68;100633.42;147330;1147;104706;-71
2021/03/25 04:25:15;;;;;;;56.95;31.52;;;;;;;5.63;63.35;100641.65;147860;1146;104475;-72
2021/03/25 04:28:24;;;;;;;57.40;32.57;;;;;;;5.70;63.81;100650.00;147995;1147;104852;-72
2021/03/25 04:31:31;;;;;;;53.90;30.23;;;;;;;5.70;63.73;100642.06;147758;1147;104470;-74
2021/03/25 04:34:34;;;;;;;56.77;29.72;;;;;;;5.74;63.67;100642.69;147766;1147;104725;-71
2021/03/25 04:37:38;;;;;;;55.50;30.40;;;;;;;5.83;63.59;100650.80;147564;1148;104511;-75
2021/03/25 04:40:41;;;;;;;52.17;29.03;;;;;;;5.94;63.34;100646.50;147382;1147;104568;-77
2021/03/25 04:43:46;;;;;;;61.53;30.55;;;;;;;5.99;63.18;100637.30;147693;1147;104543;-77
2021/03/25 04:46:56;;;;;;;60.58;29.87;;;;;;;6.04;63.34;100644.88;147303;1147;104455;-74
2021/03/25 04:50:04;;;;;;;55.17;30.05;;;;;;;6.12;63.66;100642.53;147419;1147;104701;-71
2021/03/25 04:53:20;;;;;;;52.45;28.67;;;;;;;6.15;62.83;100636.98;147750;1147;104606;-72
2021/03/25 04:56:24;;;;;;;47.78;27.17;;;;;;;6.18;63.72;100642.06;147415;1147;104547;-75
2021/03/25 04:59:28;;;;;;;50.23;27.67;;;;;;;6.21;62.84;100651.58;147439;1147;104550;-71
2021/03/25 05:02:33;;;;;;;48.60;28.02;;;;;;;6.26;63.54;100638.84;147384;1147;104591;-80
2021/03/25 05:05:37;;;;;;;52.07;29.03;;;;;;;6.28;63.82;100634.27;147394;1148;104613;-77
2021/03/25 05:08:40;;;;;;;50.23;29.15;;;;;;;6.24;63.08;100631.00;147516;1147;104522;-80
2021/03/25 05:11:44;;;;;;;55.10;31.20;;;;;;;6.22;62.98;100635.56;147782;1147;104474;-79
2021/03/25 05:14:50;;;;;;;61.25;33.60;;;;;;;6.13;63.50;100652.15;147426;1147;104547;-78
2021/03/25 05:18:07;;;;;;;64.87;33.25;;;;;;;5.94;64.13;100652.64;147315;1147;104489;-79
2021/03/25 05:21:13;;;;;;;83.55;47.58;;;;;;;5.99;63.71;100652.34;147612;1147;104624;-78
2021/03/25 05:24:27;;;;;;;61.23;35.68;;;;;;;6.03;63.78;100659.94;147736;1146;104540;-76
2021/03/25 05:27:35;;;;;;;77.80;43.05;;;;;;;6.01;63.13;100655.73;147611;1147;104463;-81
2021/03/25 05:30:42;;;;;;;65.57;36.20;;;;;;;5.81;63.68;100644.77;147667;1147;104470;-79
2021/03/25 05:33:49;;;;;;;69.90;38.83;;;;;;;5.84;64.31;100654.28;147892;1146;104479;-78
2021/03/25 05:36:57;;;;;;;76.30;37.93;;;;;;;5.90;63.80;100649.37;147801;1147;104637;-76
2021/03/25 05:40:09;;;;;;;63.33;33.02;;;;;;;6.01;63.50;100650.43;147763;1146;104561;-81
2021/03/25 05:43:44;;;;;;;56.90;30.68;;;;;;;6.12;64.12;100657.56;147712;1148;104479;-81
2021/03/25 05:46:54;;;;;;;61.58;33.02;;;;;;;6.19;64.10;100654.34;147725;1147;104558;-79
2021/03/25 05:50:09;;;;;;;48.63;28.13;;;;;;;6.26;63.95;100650.27;147804;1147;104478;-78
2021/03/25 05:53:30;;;;;;;59.08;32.15;;;;;;;6.42;63.68;100659.72;147790;1147;104650;-79
2021/03/25 05:56:52;;;;;;;61.83;33.63;;;;;;;6.50;63.86;100654.67;147789;1146;104538;-80
2021/03/25 06:00:01;;;;;;;71.53;36.55;;;;;;;6.55;63.93;100647.22;147762;1147;104550;-81
2021/03/25 06:03:18;;;;;;;76.02;39.05;;;;;;;6.59;64.11;100653.13;147744;1147;104463;-80
2021/03/25 06:06:27;;;;;;;70.97;36.60;;;;;;;6.63;63.84;100658.07;147499;1147;104581;-79
2021/03/25 06:09:41;;;;;;;73.65;39.25;;;;;;;6.66;64.01;100662.31;147785;1147;104636;-81
2021/03/25 06:13:15;;;;;;;71.90;36.00;;;;;;;6.68;63.12;100660.39;147823;1147;104950;-79
2021/03/25 06:16:58;;;;;;;67.70;35.68;;;;;;;6.76;63.17;100662.45;147705;1147;104476;-78
2021/03/25 06:20:19;;;;;;;78.07;40.38;;;;;;;6.85;63.04;100659.06;147845;1147;104526;-82
2021/03/25 06:23:47;;;;;;;71.03;38.47;;;;;;;6.89;63.79;100657.89;147759;1147;104451;-77
2021/03/25 06:27:01;;;;;;;68.97;36.73;;;;;;;6.95;62.96;100657.41;147668;1147;104625;-80
2021/03/25 06:30:09;;;;;;;72.25;38.33;;;;;;;6.99;63.74;100660.66;147839;1147;104535;-83
2021/03/25 06:33:19;;;;;;;72.92;40.03;;;;;;;7.00;62.97;100655.21;147570;1147;104546;-80
2021/03/25 06:36:39;;;;;;;68.28;38.20;;;;;;;7.03;62.87;100665.59;147712;1147;104544;-78
2021/03/25 06:39:49;;;;;;;81.10;42.70;;;;;;;7.10;63.97;100668.59;147782;1147;104808;-79
2021/03/25 06:42:59;;;;;;;74.07;40.53;;;;;;;7.19;63.86;100667.05;147577;1147;104571;-78
2021/03/25 06:46:06;;;;;;;74.33;41.03;;;;;;;7.26;62.43;100662.95;147747;1148;104546;-80
2021/03/25 06:49:19;;;;;;;75.87;40.27;;;;;;;7.32;63.52;100658.97;147834;1147;105012;-78
2021/03/25 06:52:27;;;;;;;79.83;41.77;;;;;;;7.41;62.50;100666.17;147765;1146;104546;-78
2021/03/25 06:55:30;;;;;;;72.10;39.45;;;;;;;7.48;62.68;100664.72;147857;1147;104495;-80
2021/03/25 06:58:37;;;;;;;73.52;39.20;;;;;;;7.57;62.58;100671.13;147770;1148;104538;-81
2021/03/25 07:01:43;;;;;;;73.00;39.63;;;;;;;7.68;62.65;100665.79;147812;1147;104557;-77
2021/03/25 07:04:50;;;;;;;71.60;38.58;;;;;;;7.80;62.42;100664.78;147815;1147;104532;-80
2021/03/25 07:08:05;;;;;;;62.88;35.40;;;;;;;7.88;62.22;100668.63;147797;1147;104950;-80
2021/03/25 07:11:16;;;;;;;62.17;35.13;;;;;;;7.97;61.88;100663.41;147864;1148;104544;-78
2021/03/25 07:14:29;;;;;;;61.45;35.55;;;;;;;8.09;62.57;100674.00;147862;1146;104490;-79
2021/03/25 07:17:39;;;;;;;66.53;36.53;;;;;;;8.19;62.17;100680.23;147777;1148;104536;-80
2021/03/25 07:20:42;;;;;;;56.97;33.27;;;;;;;8.30;62.44;100679.35;147586;1147;104471;-77
2021/03/25 07:23:46;;;;;;;82.45;51.37;;;;;;;8.40;62.70;100673.12;147511;1147;104500;-78
2021/03/25 07:26:55;;;;;;;69.03;43.40;;;;;;;8.51;62.40;100671.42;147596;1147;104467;-80
2021/03/25 07:30:02;;;;;;;85.65;57.30;;;;;;;8.61;62.27;100673.16;147811;1147;104916;-79
2021/03/25 07:33:10;;;;;;;89.92;62.98;;;;;;;8.72;61.75;100679.38;147816;1148;104486;-81
2021/03/25 07:36:15;;;;;;;118.20;89.60;;;;;;;8.83;61.61;100677.51;147875;1147;104495;-79
2021/03/25 07:39:26;;;;;;;66.00;43.17;;;;;;;8.96;61.69;100671.12;147755;1148;104498;-81
2021/03/25 07:42:32;;;;;;;133.93;104.27;;;;;;;9.09;61.80;100668.25;147502;1147;104486;-79
2021/03/25 07:45:36;;;;;;;202.57;146.10;;;;;;;9.18;61.55;100672.74;147749;1147;104454;-80
2021/03/25 07:48:40;;;;;;;235.53;176.32;;;;;;;9.24;61.51;100666.91;147868;1147;104528;-78
2021/03/25 07:51:50;;;;;;;112.08;77.35;;;;;;;9.36;61.61;100676.47;147822;1147;104450;-77
2021/03/25 07:54:53;;;;;;;69.93;44.27;;;;;;;9.47;61.31;100672.01;147839;1147;104490;-80
2021/03/25 07:57:58;;;;;;;67.25;41.02;;;;;;;9.59;61.43;100677.10;147476;1147;104468;-76
2021/03/25 08:01:09;;;;;;;52.75;34.25;;;;;;;9.64;61.08;100674.02;147399;1146;104547;-80
2021/03/25 08:04:26;;;;;;;53.08;32.78;;;;;;;9.65;61.16;100670.39;147509;1147;104467;-80
2021/03/25 08:07:37;;;;;;;49.80;30.60;;;;;;;9.55;60.14;100681.02;147678;1147;104434;-76
2021/03/25 08:10:45;;;;;;;49.73;30.62;;;;;;;9.47;60.55;100672.01;147773;1146;104617;-80
2021/03/25 08:13:52;;;;;;;48.37;30.17;;;;;;;9.48;60.61;100663.89;147790;1146;104444;-76
2021/03/25 08:17:02;;;;;;;49.08;30.17;;;;;;;9.48;60.15;100660.39;147815;1147;104640;-79
2021/03/25 08:20:17;;;;;;;48.58;28.77;;;;;;;9.44;60.89;100654.48;147733;1147;104491;-83
2021/03/25 08:23:45;;;;;;;57.45;31.85;;;;;;;9.41;60.79;100655.61;147799;1147;104466;-78
2021/03/25 08:27:04;;;;;;;51.70;32.67;;;;;;;9.39;60.57;100660.23;147837;1147;104546;-77
2021/03/25 08:30:25;;;;;;;50.52;30.77;;;;;;;9.40;60.54;100655.74;147667;1148;104550;-80
2021/03/25 08:33:42;;;;;;;48.35;30.55;;;;;;;9.34;60.19;100656.29;147803;1147;104552;-77
2021/03/25 08:36:57;;;;;;;48.17;29.23;;;;;;;9.32;59.81;100656.42;147493;1146;104655;-77
2021/03/25 08:40:06;;;;;;;49.42;31.42;;;;;;;9.36;59.92;100655.16;148529;1146;104405;-79
2021/03/25 08:43:20;;;;;;;43.30;28.67;;;;;;;9.41;59.86;100652.95;147616;1147;104525;-80
2021/03/25 08:46:31;;;;;;;45.60;27.87;;;;;;;9.41;59.54;100652.95;147742;1147;104556;-80
2021/03/25 08:49:40;;;;;;;44.55;28.40;;;;;;;9.50;59.29;100659.27;147831;1147;104475;-77
2021/03/25 08:52:45;;;;;;;43.23;26.62;;;;;;;9.62;59.00;100662.66;147868;1147;104489;-81
2021/03/25 08:55:53;;;;;;;45.20;27.82;;;;;;;9.68;59.18;100663.93;147818;1147;104377;-79
2021/03/25 08:59:02;;;;;;;46.37;28.25;;;;;;;9.82;58.63;100658.22;147765;1147;104470;-77
2021/03/25 09:02:17;;;;;;;41.67;26.87;;;;;;;9.96;59.18;100652.47;147639;1147;104449;-79
2021/03/25 09:05:26;;;;;;;42.17;26.33;;;;;;;10.14;58.40;100641.97;147358;1148;104550;-78
2021/03/25 09:08:31;;;;;;;44.27;27.02;;;;;;;10.31;58.83;100656.42;147327;1148;104529;-79
2021/03/25 09:11:34;;;;;;;43.40;27.70;;;;;;;10.58;58.78;100658.36;147618;1147;104445;-81
2021/03/25 09:14:38;;;;;;;40.67;26.57;;;;;;;10.82;58.47;100659.73;147375;1146;104569;-78
2021/03/25 09:17:49;;;;;;;45.15;27.70;;;;;;;11.05;57.38;100651.34;147230;1146;104671;-80
2021/03/25 09:20:55;;;;;;;42.25;27.32;;;;;;;11.28;57.98;100650.00;147304;1147;104601;-78
2021/03/25 09:24:08;;;;;;;46.17;30.13;;;;;;;11.38;56.17;100644.61;147394;1146;104506;-78
2021/03/25 09:27:11;;;;;;;43.15;28.17;;;;;;;11.40;56.64;100643.45;147310;1145;104509;-79
2021/03/25 09:30:30;;;;;;;43.03;26.43;;;;;;;11.51;56.80;100641.56;147237;1146;104576;-78
2021/03/25 09:33:57;;;;;;;144.10;82.45;;;;;;;11.61;56.38;100650.37;147260;1147;104535;-77
2021/03/25 09:37:16;;;;;;;249.35;155.80;;;;;;;11.67;56.42;100649.77;147215;1147;104863;-78
2021/03/25 09:40:48;;;;;;;324.02;217.62;;;;;;;11.78;56.30;100640.71;147321;1146;104546;-79
2021/03/25 09:43:54;;;;;;;82.72;49.67;;;;;;;11.89;56.40;100637.81;147688;1147;104505;-76
2021/03/25 09:47:20;;;;;;;140.10;94.27;;;;;;;11.92;56.26;100642.05;147638;1147;104536;-78
2021/03/25 09:50:24;;;;;;;55.07;36.40;;;;;;;11.87;56.31;100641.61;147513;1147;104483;-80
2021/03/25 09:53:28;;;;;;;271.25;189.57;;;;;;;11.90;56.49;100630.66;147634;1147;104565;-80
2021/03/25 09:56:36;;;;;;;89.80;58.85;;;;;;;11.93;55.35;100624.98;147819;1147;104547;-79
2021/03/25 09:59:54;;;;;;;60.30;38.95;;;;;;;12.03;55.38;100627.58;147277;1147;104899;-81
2021/03/25 10:02:58;;;;;;;48.42;32.10;;;;;;;12.07;54.68;100627.14;147477;1147;104546;-81
2021/03/25 10:06:02;;;;;;;49.45;32.03;;;;;;;12.08;55.02;100626.13;147768;1147;104502;-78
2021/03/25 10:09:05;;;;;;;44.90;29.92;;;;;;;12.18;55.97;100621.56;147233;1147;104902;-81
2021/03/25 10:12:11;;;;;;;46.68;31.07;;;;;;;12.23;54.92;100629.11;147285;1147;104492;-80
2021/03/25 10:15:44;;;;;;;48.10;31.73;;;;;;;12.17;53.96;100624.38;147461;1147;104535;-79
2021/03/25 10:18:54;;;;;;;42.93;28.20;;;;;;;12.09;54.67;100622.48;147745;1147;104474;-77
2021/03/25 10:21:59;;;;;;;46.02;29.63;;;;;;;12.00;54.67;100622.56;147602;1147;104851;-80
2021/03/25 10:25:05;;;;;;;41.85;28.80;;;;;;;11.92;55.12;100623.33;147549;1147;104722;-79
2021/03/25 10:28:13;;;;;;;49.98;31.27;;;;;;;11.92;53.85;100609.95;147760;1147;104545;-79
2021/03/25 10:31:20;;;;;;;47.30;31.30;;;;;;;11.92;52.74;100610.78;147736;1147;104469;-79
2021/03/25 10:34:26;;;;;;;51.42;32.42;;;;;;;11.89;54.16;100612.89;147574;1147;104513;-77
2021/03/25 10:37:35;;;;;;;46.57;30.93;;;;;;;11.90;54.54;100606.59;147731;1146;104547;-78
2021/03/25 10:40:45;;;;;;;47.80;31.62;;;;;;;11.97;54.05;100612.98;147715;1146;104548;-80
2021/03/25 10:43:50;;;;;;;49.33;32.00;;;;;;;11.96;53.83;100617.50;147756;1147;104492;-80
2021/03/25 10:46:55;;;;;;;47.95;32.65;;;;;;;12.01;53.79;100613.52;147874;1147;104401;-77
2021/03/25 10:50:01;;;;;;;45.52;31.17;;;;;;;12.07;53.79;100611.09;147822;1147;104535;-82
2021/03/25 10:53:10;;;;;;;46.42;30.45;;;;;;;12.12;53.78;100610.62;147721;1147;104546;-80
2021/03/25 10:56:20;;;;;;;48.08;31.87;;;;;;;12.03;53.24;100607.05;147696;1147;104558;-77
2021/03/25 10:59:26;;;;;;;49.33;31.60;;;;;;;12.15;54.14;100604.97;147751;1147;104543;-79
2021/03/25 11:02:39;;;;;;;48.90;32.15;;;;;;;12.28;53.87;100600.06;147728;1147;104463;-81
2021/03/25 11:05:53;;;;;;;46.17;31.20;;;;;;;12.34;53.49;100601.28;147581;1147;104510;-78
2021/03/25 11:09:09;;;;;;;48.03;32.20;;;;;;;12.33;53.27;100604.94;147492;1147;104446;-80
2021/03/25 11:12:21;;;;;;;47.73;32.05;;;;;;;12.29;53.19;100595.55;147741;1147;104546;-80
2021/03/25 11:15:32;;;;;;;47.47;32.73;;;;;;;12.35;53.12;100597.59;147548;1147;104454;-80
2021/03/25 11:18:40;;;;;;;51.68;34.30;;;;;;;12.36;52.46;100597.44;147714;1147;104539;-79
2021/03/25 11:21:44;;;;;;;49.03;32.30;;;;;;;12.41;53.76;100594.28;147767;1147;104542;-82
2021/03/25 11:24:48;;;;;;;50.48;32.88;;;;;;;12.46;53.58;100600.02;147854;1146;104944;-81
2021/03/25 11:27:53;;;;;;;49.85;33.50;;;;;;;12.45;53.37;100590.32;147516;1147;104574;-79
2021/03/25 11:31:15;;;;;;;49.03;33.25;;;;;;;12.47;53.24;100587.46;147528;1147;104467;-83
2021/03/25 11:34:27;;;;;;;46.55;31.52;;;;;;;12.55;53.01;100579.50;147686;1147;104948;-79
2021/03/25 11:37:36;;;;;;;43.50;30.03;;;;;;;12.69;53.30;100575.40;147426;1147;104892;-80
2021/03/25 11:40:43;;;;;;;48.70;32.60;;;;;;;12.79;52.75;100565.40;147781;1147;104543;-79
2021/03/25 11:43:52;;;;;;;44.42;31.57;;;;;;;12.85;52.79;100569.28;147809;1148;104631;-79
2021/03/25 11:46:55;;;;;;;43.90;31.02;;;;;;;12.89;51.63;100560.75;147776;1147;104591;-82
2021/03/25 11:49:59;;;;;;;48.95;33.18;;;;;;;13.01;52.41;100558.65;147591;1147;104480;-80
2021/03/25 11:53:05;;;;;;;46.90;31.90;;;;;;;13.19;52.30;100565.74;147749;1147;105044;-79
2021/03/25 11:56:25;;;;;;;46.48;32.45;;;;;;;13.17;51.82;100555.18;148009;1146;104542;-82
2021/03/25 11:59:33;;;;;;;46.60;32.10;;;;;;;13.07;52.06;100551.81;147803;1147;104627;-81
2021/03/25 12:02:37;;;;;;;47.38;32.90;;;;;;;13.04;51.95;100552.95;147839;1146;104544;-79
2021/03/25 12:05:43;;;;;;;47.48;32.42;;;;;;;13.14;52.29;100540.28;147800;1146;104531;-79
2021/03/25 12:08:47;;;;;;;48.23;33.55;;;;;;;13.24;51.37;100540.14;147837;1146;104591;-79
2021/03/25 12:11:51;;;;;;;49.57;33.57;;;;;;;13.15;50.58;100547.30;147855;1147;104557;-77
2021/03/25 12:14:54;;;;;;;50.73;34.30;;;;;;;13.09;50.85;100545.28;147854;1147;104725;-80
2021/03/25 12:18:00;;;;;;;46.65;33.18;;;;;;;13.02;51.52;100544.23;147580;1147;104553;-80
2021/03/25 12:21:07;;;;;;;46.83;33.10;;;;;;;13.00;50.46;100540.88;147702;1147;104916;-78
2021/03/25 12:24:12;;;;;;;49.25;33.73;;;;;;;13.01;51.31;100536.36;147788;1146;104572;-79
2021/03/25 12:27:19;;;;;;;49.15;34.78;;;;;;;13.08;51.00;100532.04;147780;1147;104566;-78
2021/03/25 12:30:25;;;;;;;47.83;33.40;;;;;;;13.09;51.01;100537.23;147864;1147;104624;-77
2021/03/25 12:33:30;;;;;;;48.30;33.45;;;;;;;13.13;50.75;100529.72;147779;1147;104547;-79
2021/03/25 12:36:34;;;;;;;48.28;34.08;;;;;;;13.15;50.54;100525.03;147820;1146;104485;-78
2021/03/25 12:39:37;;;;;;;49.38;32.90;;;;;;;13.20;50.93;100524.53;147849;1146;104470;-80
2021/03/25 12:42:40;;;;;;;47.75;33.35;;;;;;;13.33;51.05;100531.13;147818;1147;104538;-80
2021/03/25 12:45:49;;;;;;;46.67;33.57;;;;;;;13.39;51.13;100526.95;147580;1147;104544;-78
2021/03/25 12:48:53;;;;;;;47.62;33.00;;;;;;;13.48;51.48;100530.49;147567;1147;104532;-79
2021/03/25 12:51:56;;;;;;;44.50;32.48;;;;;;;13.55;51.57;100523.48;147876;1147;104493;-82
2021/03/25 12:54:59;;;;;;;44.53;31.42;;;;;;;13.62;50.72;100523.64;147821;1147;104513;-78
2021/03/25 12:58:03;;;;;;;49.07;33.30;;;;;;;13.64;50.64;100521.63;147514;1147;104451;-80
2021/03/25 13:01:10;;;;;;;47.55;33.10;;;;;;;13.62;48.53;100524.47;147627;1147;104553;-79
2021/03/25 13:04:13;;;;;;;45.50;32.50;;;;;;;13.45;49.54;100512.91;147710;1147;104516;-77
2021/03/25 13:07:16;;;;;;;45.88;32.45;;;;;;;13.29;49.57;100518.20;147744;1147;104547;-77
2021/03/25 13:10:22;;;;;;;48.63;33.83;;;;;;;13.21;49.98;100513.66;147691;1148;104536;-79
2021/03/25 13:13:25;;;;;;;47.08;33.23;;;;;;;13.24;49.85;100516.02;147389;1146;104972;-78
2021/03/25 13:16:28;;;;;;;43.83;30.82;;;;;;;13.23;50.38;100502.78;147295;1147;104617;-78
2021/03/25 13:19:31;;;;;;;45.28;31.68;;;;;;;13.21;49.70;100502.11;147342;1147;104540;-78
2021/03/25 13:22:35;;;;;;;46.07;32.13;;;;;;;13.18;50.09;100511.30;147400;1147;104494;-79
2021/03/25 13:25:41;;;;;;;46.80;32.90;;;;;;;13.16;49.97;100505.27;147427;1147;104470;-79
2021/03/25 13:28:45;;;;;;;45.80;32.00;;;;;;;13.19;50.44;100504.12;147341;1147;104540;-79
2021/03/25 13:31:49;;;;;;;48.28;33.20;;;;;;;13.23;49.88;100508.14;147618;1147;104623;-80
2021/03/25 13:34:52;;;;;;;46.25;32.67;;;;;;;13.26;50.38;100511.33;147851;1147;104468;-78
2021/03/25 13:37:56;;;;;;;49.27;34.55;;;;;;;13.30;49.72;100504.67;147747;1147;104473;-78
2021/03/25 13:41:00;;;;;;;45.33;30.73;;;;;;;13.32;50.27;100507.19;147835;1146;104496;-80
2021/03/25 13:44:04;;;;;;;46.88;32.73;;;;;;;13.29;49.74;100505.63;147732;1147;104543;-79
2021/03/25 13:47:07;;;;;;;48.58;34.43;;;;;;;13.27;49.86;100499.59;147597;1146;104546;-77
2021/03/25 13:50:15;;;;;;;45.60;32.95;;;;;;;13.15;49.66;100499.07;147683;1146;104457;-79
2021/03/25 13:53:19;;;;;;;43.02;30.75;;;;;;;13.09;49.09;100501.58;147716;1147;104484;-78
2021/03/25 13:56:22;;;;;;;53.30;35.83;;;;;;;13.09;49.64;100490.86;147571;1147;104470;-81
2021/03/25 13:59:25;;;;;;;51.63;35.90;;;;;;;13.18;49.88;100494.38;147684;1147;104538;-81
2021/03/25 14:02:28;;;;;;;57.93;38.70;;;;;;;13.23;49.54;100494.74;147700;1146;104544;-79
2021/03/25 14:05:33;;;;;;;51.43;34.43;;;;;;;13.15;47.24;100500.92;147752;1148;104451;-80
2021/03/25 14:08:36;;;;;;;53.17;36.23;;;;;;;12.86;47.83;100507.53;147704;1146;104521;-79